Time;durP1;ratioP1;P1;durP2;ratioP2;P2;SDS_P1;SDS_P2;PMS_P1;PMS_P2;Temp;Humidity;BMP_temperature;BMP_pressure;BME280_temperature;BME280_humidity;BME280_pressure;Samples;Min_cycle;Max_cycle;Signal;HPM_P1;HPM_P2
2022/10/05 00:01:39;;;;;;;4.75;2.88;;;;;;;19.66;53.48;101697.50;5064103;28;20020;-64
2022/10/05 00:04:17;;;;;;;6.57;2.67;;;;;;;19.65;53.38;101693.19;5064200;28;20025;-66
2022/10/05 00:07:08;;;;;;;6.05;2.45;;;;;;;19.74;53.35;101705.69;5064366;28;20277;-64
2022/10/05 00:09:33;;;;;;;5.32;2.70;;;;;;;19.70;53.26;101706.91;5060857;28;20402;-64
2022/10/05 00:12:15;;;;;;;4.47;2.60;;;;;;;19.67;53.46;101699.19;5063949;28;20028;-64
2022/10/05 00:14:42;;;;;;;5.70;3.10;;;;;;;19.71;53.50;101711.22;5063883;28;20048;-64
2022/10/05 00:17:14;;;;;;;5.82;2.92;;;;;;;19.72;53.35;101708.47;5063944;28;20094;-65
2022/10/05 00:19:41;;;;;;;5.05;3.20;;;;;;;19.65;53.41;101699.31;5063844;28;20039;-63
2022/10/05 00:22:12;;;;;;;4.50;2.50;;;;;;;19.64;53.55;101694.97;5063414;28;21009;-64
2022/10/05 00:24:38;;;;;;;5.63;3.13;;;;;;;19.64;53.38;101680.91;5063418;28;20095;-64
2022/10/05 00:27:35;;;;;;;5.43;2.95;;;;;;;19.70;53.50;101685.75;5063813;28;20178;-65
2022/10/05 00:30:10;;;;;;;6.70;2.55;;;;;;;19.61;53.46;101676.69;5063232;28;20079;-64
2022/10/05 00:32:35;;;;;;;5.45;2.90;;;;;;;19.59;53.54;101681.25;5063585;28;20028;-66
2022/10/05 00:35:00;;;;;;;4.27;2.90;;;;;;;19.64;53.42;101684.38;5063725;28;20047;-66
2022/10/05 00:37:26;;;;;;;4.60;2.97;;;;;;;19.67;53.54;101694.75;5063296;28;20352;-63
2022/10/05 00:39:51;;;;;;;5.67;3.27;;;;;;;19.60;53.51;101679.44;5063448;28;20032;-64
2022/10/05 00:42:35;;;;;;;4.32;2.78;;;;;;;19.66;53.35;101692.22;5062121;28;20269;-66
2022/10/05 00:45:17;;;;;;;5.25;2.90;;;;;;;19.66;53.74;101686.91;5063719;28;20465;-67
2022/10/05 00:47:54;;;;;;;4.50;2.90;;;;;;;19.65;53.53;101688.72;5062160;28;21043;-65
2022/10/05 00:50:22;;;;;;;5.55;2.78;;;;;;;19.65;53.62;101690.53;5063378;28;20140;-65
2022/10/05 00:53:11;;;;;;;5.03;2.88;;;;;;;19.57;53.55;101678.72;5063476;28;20116;-64
2022/10/05 00:55:45;;;;;;;5.28;3.03;;;;;;;19.64;53.70;101687.03;5063589;28;20119;-63
2022/10/05 00:58:27;;;;;;;5.07;2.80;;;;;;;19.63;53.52;101684.50;5062652;28;20041;-66
2022/10/05 01:01:15;;;;;;;4.55;2.92;;;;;;;19.57;53.64;101681.38;5062985;28;20029;-65
2022/10/05 01:03:59;;;;;;;4.65;3.00;;;;;;;19.54;53.57;101676.31;5063139;28;20036;-64
2022/10/05 01:06:56;;;;;;;4.97;3.08;;;;;;;19.61;53.39;101681.97;5063436;28;20039;-63
2022/10/05 01:09:59;;;;;;;4.50;2.80;;;;;;;19.62;53.63;101680.19;5058913;28;20086;-65
2022/10/05 01:12:46;;;;;;;5.18;3.05;;;;;;;19.61;53.80;101679.31;5062835;28;20889;-64
2022/10/05 01:15:12;;;;;;;5.00;2.80;;;;;;;19.61;53.50;101670.56;5062522;28;20471;-64
2022/10/05 01:17:48;;;;;;;5.10;2.90;;;;;;;19.60;53.46;101663.56;5063235;28;20086;-63
2022/10/05 01:20:32;;;;;;;4.72;2.70;;;;;;;19.60;53.67;101658.28;5062651;28;20361;-65
2022/10/05 01:23:13;;;;;;;4.97;3.10;;;;;;;19.59;53.49;101657.44;5062757;28;20028;-63
2022/10/05 01:25:47;;;;;;;4.65;3.05;;;;;;;19.60;53.53;101660.94;5062738;28;20049;-66
2022/10/05 01:28:23;;;;;;;;;;;;;;;19.56;53.61;101657.69;5063361;28;20468;-65
2022/10/05 01:31:04;;;;;;;4.55;3.03;;;;;;;19.57;53.59;101652.28;5062467;28;20675;-66
2022/10/05 01:33:45;;;;;;;4.65;2.95;;;;;;;19.55;53.63;101648.06;5062449;28;20039;-65
2022/10/05 01:36:10;;;;;;;5.15;2.95;;;;;;;19.56;53.66;101652.41;5062233;28;20093;-65
2022/10/05 01:38:56;;;;;;;4.67;2.87;;;;;;;19.57;53.46;101651.44;5062358;28;20044;-64
2022/10/05 01:41:33;;;;;;;5.20;2.95;;;;;;;19.55;53.61;101648.91;5062257;28;20307;-64
2022/10/05 01:44:14;;;;;;;4.93;2.90;;;;;;;19.54;53.68;101643.75;5062322;28;20419;-64
2022/10/05 01:46:46;;;;;;;5.18;3.33;;;;;;;19.56;53.67;101644.47;5062066;28;20043;-64
2022/10/05 01:49:53;;;;;;;5.25;3.10;;;;;;;19.54;53.73;101644.56;5062617;28;20024;-63
2022/10/05 01:52:37;;;;;;;5.63;2.85;;;;;;;19.54;53.78;101633.16;5042265;28;20358;-64
2022/10/05 01:55:18;;;;;;;6.10;3.42;;;;;;;19.55;53.67;101632.19;5060184;28;20436;-63
2022/10/05 01:58:06;;;;;;;4.75;2.88;;;;;;;19.54;53.47;101631.34;5061809;28;20036;-64
2022/10/05 02:00:38;;;;;;;4.63;2.67;;;;;;;19.47;53.68;101608.13;5061875;28;20475;-63
2022/10/05 02:03:12;;;;;;;4.72;3.00;;;;;;;19.53;53.58;101608.50;5060605;28;20028;-64
2022/10/05 02:05:47;;;;;;;5.30;3.17;;;;;;;19.49;53.68;101606.25;5061804;28;20028;-64
2022/10/05 02:08:15;;;;;;;;;;;;;;;19.52;53.75;101612.13;5062540;28;20469;-64
2022/10/05 02:10:47;;;;;;;4.97;2.95;;;;;;;19.53;53.57;101613.78;5061700;28;20318;-64
2022/10/05 02:13:20;;;;;;;4.80;3.03;;;;;;;19.51;53.56;101602.50;5061958;28;20064;-66
2022/10/05 02:15:53;;;;;;;5.05;2.88;;;;;;;19.53;53.63;101605.88;5062155;28;20036;-65
2022/10/05 02:18:22;;;;;;;5.28;3.13;;;;;;;19.45;53.74;101591.56;5061559;28;20089;-66
2022/10/05 02:20:51;;;;;;;5.07;3.13;;;;;;;19.50;53.81;101592.91;5061279;28;20038;-65
2022/10/05 02:23:22;;;;;;;7.63;3.10;;;;;;;19.50;53.66;101592.03;5061563;28;20040;-62
2022/10/05 02:25:50;;;;;;;5.93;3.20;;;;;;;19.48;53.79;101591.31;5061375;28;20075;-63
2022/10/05 02:28:26;;;;;;;5.65;2.58;;;;;;;19.46;53.66;101583.50;5061863;28;20095;-64
2022/10/05 02:30:57;;;;;;;4.65;3.10;;;;;;;19.46;53.79;101586.16;5061438;28;20036;-64
2022/10/05 02:33:28;;;;;;;4.70;2.88;;;;;;;19.26;53.71;101553.28;5061659;28;20120;-62
2022/10/05 02:35:59;;;;;;;5.35;2.88;;;;;;;19.43;53.62;101574.97;5061617;28;20024;-64
2022/10/05 02:38:47;;;;;;;5.30;3.05;;;;;;;19.45;53.56;101575.69;5061320;28;20056;-63
2022/10/05 02:41:56;;;;;;;5.97;3.15;;;;;;;19.50;53.63;101584.13;5061398;28;20021;-66
2022/10/05 02:44:32;;;;;;;6.05;2.80;;;;;;;19.44;53.57;101566.06;5060888;28;20048;-65
2022/10/05 02:47:28;;;;;;;5.75;2.80;;;;;;;19.43;53.69;101559.94;5061511;28;20032;-63
2022/10/05 02:50:11;;;;;;;5.38;2.70;;;;;;;19.50;53.76;101566.47;5060903;28;20036;-63
2022/10/05 02:52:58;;;;;;;5.00;2.97;;;;;;;19.50;53.60;101574.41;5061405;28;20353;-64
2022/10/05 02:55:37;;;;;;;5.30;3.05;;;;;;;19.47;53.66;101553.47;5061420;28;20201;-63
2022/10/05 02:58:10;;;;;;;4.60;2.47;;;;;;;19.48;53.58;101565.72;5061185;28;20048;-64
2022/10/05 03:00:44;;;;;;;7.30;3.10;;;;;;;19.47;53.66;101557.91;5061348;28;20036;-64
2022/10/05 03:03:19;;;;;;;4.47;3.17;;;;;;;19.49;53.60;101561.28;5060908;28;20380;-65
2022/10/05 03:05:53;;;;;;;4.53;2.92;;;;;;;19.43;53.56;101549.38;5061365;28;20123;-63
2022/10/05 03:08:54;;;;;;;4.90;3.25;;;;;;;19.48;53.59;101554.31;5060710;28;20017;-66
2022/10/05 03:11:45;;;;;;;5.57;3.20;;;;;;;19.47;53.53;101547.34;5065240;28;20051;-64
2022/10/05 03:14:22;;;;;;;4.65;2.67;;;;;;;19.46;53.76;101546.50;5064752;28;20047;-66
2022/10/05 03:17:00;;;;;;;4.55;2.67;;;;;;;19.42;53.70;101537.09;5065037;28;20514;-64
2022/10/05 03:19:43;;;;;;;4.85;2.83;;;;;;;19.47;53.61;101547.34;5064875;28;20032;-65
2022/10/05 03:22:45;;;;;;;5.13;2.88;;;;;;;19.47;53.54;101544.69;5064947;28;20506;-66
2022/10/05 03:25:26;;;;;;;4.75;2.85;;;;;;;19.46;53.79;101541.22;5064454;28;20131;-63
2022/10/05 03:28:04;;;;;;;4.82;3.15;;;;;;;19.47;53.62;101542.03;5064818;28;20041;-64
2022/10/05 03:30:44;;;;;;;4.50;2.97;;;;;;;19.44;53.68;101539.63;5064592;28;20025;-64
2022/10/05 03:33:20;;;;;;;5.20;2.63;;;;;;;19.36;53.69;101527.84;5064773;28;20152;-66
2022/10/05 03:35:58;;;;;;;3.90;2.65;;;;;;;19.45;53.74;101550.09;5064765;28;20029;-64
2022/10/05 03:38:26;;;;;;;4.55;2.80;;;;;;;19.44;53.66;101545.78;5064722;28;20479;-64
2022/10/05 03:41:22;;;;;;;4.18;2.80;;;;;;;19.44;53.70;101537.84;5064696;28;20055;-66
2022/10/05 03:43:56;;;;;;;4.65;2.70;;;;;;;19.44;53.55;101534.34;5064547;28;20040;-63
2022/10/05 03:46:55;;;;;;;5.32;2.88;;;;;;;19.42;53.45;101539.75;5064685;28;20127;-65
2022/10/05 03:49:45;;;;;;;5.65;2.90;;;;;;;19.43;53.48;101541.44;5064307;28;20658;-65
2022/10/05 03:52:20;;;;;;;4.07;2.65;;;;;;;19.42;53.65;101536.28;5064114;28;20170;-66
2022/10/05 03:54:51;;;;;;;4.88;3.00;;;;;;;19.42;53.69;101539.75;5064560;28;20755;-66
2022/10/05 03:57:21;;;;;;;3.90;2.42;;;;;;;19.35;53.70;101535.91;5064579;28;20028;-66
2022/10/05 04:00:24;;;;;;;5.03;2.88;;;;;;;19.35;53.74;101534.09;5064251;28;20039;-65
2022/10/05 04:03:12;;;;;;;4.70;2.80;;;;;;;19.40;53.54;101539.03;5063938;28;20353;-66
2022/10/05 04:05:48;;;;;;;5.45;2.92;;;;;;;19.35;53.79;101533.25;5064116;28;20024;-64
2022/10/05 04:08:28;;;;;;;4.72;2.90;;;;;;;19.32;53.61;101529.03;5064219;28;20043;-64
2022/10/05 04:10:56;;;;;;;7.03;3.33;;;;;;;19.32;53.85;101528.19;5063926;28;20034;-66
2022/10/05 04:13:38;;;;;;;5.22;2.75;;;;;;;19.35;53.47;101533.25;5064053;28;20029;-65
2022/10/05 04:16:14;;;;;;;4.47;2.85;;;;;;;19.40;53.61;101544.31;5064009;28;20138;-65
2022/10/05 04:18:47;;;;;;;4.53;3.03;;;;;;;19.31;53.73;101529.16;5064040;28;20020;-64
2022/10/05 04:21:22;;;;;;;5.68;2.83;;;;;;;19.34;53.63;101536.84;5063519;28;20035;-63
2022/10/05 04:24:03;;;;;;;5.40;2.95;;;;;;;19.39;53.67;101547.91;5062370;28;20028;-63
2022/10/05 04:26:36;;;;;;;4.70;2.90;;;;;;;19.38;53.75;101543.59;5063699;28;20171;-63
2022/10/05 04:29:12;;;;;;;4.60;3.35;;;;;;;19.39;53.80;101542.63;5063762;28;20090;-63
2022/10/05 04:32:15;;;;;;;4.45;2.65;;;;;;;19.37;53.51;101533.97;5063841;28;20182;-66
2022/10/05 04:35:10;;;;;;;4.28;2.90;;;;;;;19.30;53.59;101517.75;5063588;28;20029;-63
2022/10/05 04:37:41;;;;;;;4.78;3.00;;;;;;;19.38;53.67;101533.03;5063316;28;21211;-64
2022/10/05 04:40:25;;;;;;;5.60;2.78;;;;;;;19.37;53.75;101526.88;5063225;28;20078;-63
2022/10/05 04:43:11;;;;;;;5.45;2.95;;;;;;;19.37;53.60;101528.69;5063571;28;20046;-64
2022/10/05 04:46:00;;;;;;;4.22;2.65;;;;;;;19.35;53.68;101526.16;5063318;28;20032;-66
2022/10/05 04:49:03;;;;;;;4.65;2.83;;;;;;;19.35;53.69;101526.16;5063352;28;20103;-63
2022/10/05 04:51:35;;;;;;;4.30;2.90;;;;;;;19.37;53.65;101528.69;5063125;28;20098;-65
2022/10/05 04:54:43;;;;;;;4.30;2.50;;;;;;;19.36;53.58;101522.56;5063100;28;20120;-65
2022/10/05 04:57:36;;;;;;;4.53;2.60;;;;;;;19.33;53.72;101514.03;5062855;28;20036;-64
2022/10/05 05:00:25;;;;;;;4.50;2.65;;;;;;;19.35;53.66;101520.03;5062802;28;20033;-65
2022/10/05 05:02:50;;;;;;;4.72;2.80;;;;;;;19.35;53.49;101512.94;5057583;28;20037;-64
2022/10/05 05:05:30;;;;;;;4.67;2.63;;;;;;;19.31;53.73;101506.22;5062579;28;20031;-65
2022/10/05 05:08:05;;;;;;;4.18;2.38;;;;;;;19.28;53.62;101505.59;5063111;28;20048;-64
2022/10/05 05:11:00;;;;;;;4.00;2.50;;;;;;;19.35;53.58;101517.41;5063167;28;20036;-64
2022/10/05 05:13:51;;;;;;;4.30;2.78;;;;;;;19.36;53.67;101519.09;5063093;28;20037;-67
2022/10/05 05:16:31;;;;;;;4.88;2.60;;;;;;;19.35;53.60;101510.31;5063263;28;20086;-64
2022/10/05 05:19:06;;;;;;;4.40;2.83;;;;;;;19.35;53.43;101510.31;5062802;28;20407;-64
2022/10/05 05:21:37;;;;;;;5.68;2.78;;;;;;;19.34;53.46;101511.28;5062708;28;20038;-65
2022/10/05 05:24:17;;;;;;;4.55;2.42;;;;;;;19.28;53.28;101502.94;5062529;28;20036;-64
2022/10/05 05:27:13;;;;;;;3.90;2.40;;;;;;;19.34;53.71;101508.63;5062635;28;20052;-64
2022/10/05 05:30:00;;;;;;;4.65;2.40;;;;;;;19.36;53.66;101511.16;5062384;28;20106;-67
2022/10/05 05:32:47;;;;;;;3.78;2.30;;;;;;;19.26;53.39;101489.84;5061531;28;20032;-65
2022/10/05 05:35:28;;;;;;;4.15;2.50;;;;;;;19.27;53.77;101496.84;5062761;28;20040;-63
2022/10/05 05:38:12;;;;;;;4.55;2.22;;;;;;;19.35;53.73;101501.53;5062228;28;20059;-62
2022/10/05 05:41:02;;;;;;;4.57;2.40;;;;;;;19.35;53.97;101498.91;5062609;28;20032;-65
2022/10/05 05:43:52;;;;;;;5.03;2.42;;;;;;;19.37;53.81;101496.97;5062331;28;20036;-63
2022/10/05 05:46:34;;;;;;;4.00;2.55;;;;;;;19.35;53.91;101489.16;5062419;28;20460;-64
2022/10/05 05:49:06;;;;;;;4.72;2.60;;;;;;;19.38;53.87;101490.75;5061889;28;20036;-65
2022/10/05 05:51:40;;;;;;;4.60;2.42;;;;;;;19.38;53.71;101488.94;5061979;28;20476;-63
2022/10/05 05:54:15;;;;;;;4.13;2.15;;;;;;;19.45;53.97;101499.03;5062213;28;20032;-66
2022/10/05 05:56:54;;;;;;;4.82;2.35;;;;;;;19.43;53.61;101485.94;5062170;28;20075;-66
2022/10/05 05:59:26;;;;;;;4.00;2.10;;;;;;;19.39;54.06;101479.19;5061974;28;20031;-65
2022/10/05 06:01:58;;;;;;;6.43;2.70;;;;;;;19.39;53.94;101472.13;5061736;28;20125;-63
2022/10/05 06:04:37;;;;;;;3.97;2.28;;;;;;;19.42;53.97;101483.41;5062191;28;20032;-66
2022/10/05 06:07:04;;;;;;;4.15;2.15;;;;;;;19.37;54.04;101474.00;5062179;28;20032;-64
2022/10/05 06:09:36;;;;;;;5.13;2.35;;;;;;;19.45;54.18;101486.66;5061689;28;20388;-66
2022/10/05 06:12:07;;;;;;;5.05;2.45;;;;;;;19.39;54.22;101468.63;5060336;28;21256;-63
2022/10/05 06:14:42;;;;;;;5.43;2.22;;;;;;;19.53;54.33;101492.19;5061719;28;20047;-63
2022/10/05 06:17:11;;;;;;;4.68;2.17;;;;;;;19.49;54.33;101476.69;5061273;28;20839;-65
2022/10/05 06:19:38;;;;;;;5.15;2.17;;;;;;;19.49;54.29;101482.81;5061738;28;20029;-65
2022/10/05 06:22:14;;;;;;;3.55;2.03;;;;;;;19.50;54.15;101471.31;5061869;28;20068;-65
2022/10/05 06:25:01;;;;;;;4.00;2.28;;;;;;;19.48;54.28;101473.19;5061408;28;20028;-64
2022/10/05 06:28:04;;;;;;;5.03;2.20;;;;;;;19.57;54.29;101484.88;5061556;28;20048;-64
2022/10/05 06:30:53;;;;;;;4.22;2.20;;;;;;;19.53;54.12;101475.50;5061103;28;20043;-64
2022/10/05 06:33:41;;;;;;;5.13;2.38;;;;;;;19.54;54.27;101470.09;5061493;28;20028;-63
2022/10/05 06:36:39;;;;;;;3.97;2.22;;;;;;;19.62;54.07;101484.53;5061422;28;20032;-64
2022/10/05 06:39:10;;;;;;;5.28;2.40;;;;;;;19.63;54.33;101476.47;5061323;28;20099;-64
2022/10/05 06:42:00;;;;;;;3.58;2.10;;;;;;;19.64;54.29;101485.25;5061391;28;20361;-63
2022/10/05 06:44:36;;;;;;;4.20;2.47;;;;;;;19.60;54.15;101473.19;5061586;28;20059;-64
2022/10/05 06:47:26;;;;;;;4.18;2.20;;;;;;;19.66;54.33;101497.41;5061197;28;20043;-63
2022/10/05 06:50:03;;;;;;;4.82;2.30;;;;;;;19.68;54.40;101489.34;5061047;28;20028;-64
2022/10/05 06:52:47;;;;;;;3.80;2.10;;;;;;;19.68;54.48;101486.69;5061176;28;20082;-65
2022/10/05 06:55:31;;;;;;;4.27;1.97;;;;;;;19.69;54.41;101489.22;5061432;28;20036;-64
2022/10/05 06:57:59;;;;;;;5.75;2.20;;;;;;;19.69;54.40;101483.94;5061219;28;20147;-64
2022/10/05 07:00:51;;;;;;;5.15;2.20;;;;;;;19.69;54.47;101485.72;5060815;28;20107;-67
2022/10/05 07:03:56;;;;;;;4.10;2.13;;;;;;;19.70;54.46;101487.41;5061235;28;20029;-65
2022/10/05 07:06:42;;;;;;;;;;;;;;;19.69;54.18;101489.22;5077052;28;20036;-64
2022/10/05 07:09:21;;;;;;;7.13;2.10;;;;;;;19.62;54.37;101473.94;5059725;28;19999;-64
2022/10/05 07:12:09;;;;;;;5.60;1.90;;;;;;;19.69;54.47;101493.66;5058665;28;20036;-66
2022/10/05 07:15:11;;;;;;;4.90;1.92;;;;;;;19.70;54.43;101490.88;5047217;28;20086;-66
2022/10/05 07:17:59;;;;;;;4.20;2.13;;;;;;;19.63;54.46;101476.47;5059271;28;20042;-66
2022/10/05 07:20:58;;;;;;;5.18;2.05;;;;;;;19.72;54.20;101488.97;5059498;28;20028;-66
2022/10/05 07:23:34;;;;;;;8.63;2.05;;;;;;;19.74;54.05;101495.00;5059904;28;20044;-66
2022/10/05 07:26:21;;;;;;;5.57;2.10;;;;;;;19.61;54.03;101470.44;5059234;28;20053;-65
2022/10/05 07:29:06;;;;;;;3.65;2.13;;;;;;;19.73;54.17;101490.66;5059820;28;20044;-68
2022/10/05 07:31:49;;;;;;;4.10;1.90;;;;;;;19.78;54.07;101486.84;5059881;28;20131;-63
2022/10/05 07:34:23;;;;;;;4.40;2.15;;;;;;;19.79;54.06;101497.31;5059723;28;20483;-64
2022/10/05 07:40:07;;;;;;;3.60;2.05;;;;;;;19.73;54.02;101473.94;5059258;28;20222;-65
2022/10/05 07:42:47;;;;;;;4.68;1.98;;;;;;;19.82;53.96;101482.97;5059871;28;20036;-65
2022/10/05 07:45:26;;;;;;;3.72;1.90;;;;;;;19.83;53.71;101488.16;5060444;28;20024;-67
2022/10/05 07:47:57;;;;;;;3.47;1.92;;;;;;;19.78;53.71;101489.50;5060400;28;20189;-65
2022/10/05 07:50:58;;;;;;;4.55;2.13;;;;;;;19.82;53.90;101494.44;5059945;28;20036;-65
2022/10/05 07:53:30;;;;;;;5.10;2.00;;;;;;;19.76;53.86;101492.25;5058460;28;20153;-65
2022/10/05 07:56:01;;;;;;;3.92;1.83;;;;;;;19.83;53.94;101501.38;5061733;28;20028;-66
2022/10/05 07:58:32;;;;;;;4.65;1.95;;;;;;;19.84;53.83;101499.59;5063572;28;20551;-67
2022/10/05 08:01:01;;;;;;;4.90;1.90;;;;;;;19.84;53.61;101504.88;5062382;28;20032;-68
2022/10/05 08:03:37;;;;;;;4.53;2.20;;;;;;;19.79;53.95;101488.50;5063174;28;20487;-63
2022/10/05 08:06:04;;;;;;;5.05;2.22;;;;;;;19.80;53.93;101487.56;5062675;28;20039;-63
2022/10/05 08:08:52;;;;;;;5.18;2.17;;;;;;;19.78;53.89;101478.91;5063291;28;20056;-65
2022/10/05 08:11:32;;;;;;;5.03;1.95;;;;;;;19.79;53.75;101485.88;5062675;28;20016;-65
2022/10/05 08:14:10;;;;;;;5.53;1.77;;;;;;;19.78;54.07;101485.03;5063755;28;20032;-65
2022/10/05 08:16:37;;;;;;;4.68;1.80;;;;;;;19.85;54.07;101490.69;5064120;28;20064;-64
2022/10/05 08:19:32;;;;;;;4.70;2.13;;;;;;;19.83;54.05;101484.69;5063083;28;20055;-65
2022/10/05 08:22:04;;;;;;;6.03;1.95;;;;;;;19.83;53.97;101476.75;5062653;28;20066;-64
2022/10/05 08:24:48;;;;;;;5.50;1.80;;;;;;;19.83;53.92;101479.38;5063224;28;20028;-67
2022/10/05 08:27:24;;;;;;;3.92;1.90;;;;;;;19.80;53.69;101466.41;5062897;28;20045;-67
2022/10/05 08:30:03;;;;;;;4.53;1.90;;;;;;;19.81;53.93;101463.63;5063175;28;20043;-65
2022/10/05 08:32:39;;;;;;;4.57;1.98;;;;;;;19.81;53.98;101457.53;5062979;28;20031;-65
2022/10/05 08:35:34;;;;;;;3.30;1.60;;;;;;;19.88;53.77;101470.13;5063175;28;20067;-65
2022/10/05 08:38:03;;;;;;;3.35;1.75;;;;;;;19.83;53.87;101458.22;5063552;28;20037;-64
2022/10/05 08:40:59;;;;;;;4.10;1.95;;;;;;;19.88;54.05;101472.75;5062942;28;20024;-63
2022/10/05 08:43:54;;;;;;;4.22;1.75;;;;;;;19.88;53.88;101470.13;5062245;28;20060;-64
2022/10/05 08:46:22;;;;;;;;;;;;;;;19.88;54.01;101469.28;5053866;28;20465;-64
2022/10/05 08:49:10;;;;;;;3.03;1.48;;;;;;;19.88;54.13;101467.47;5063551;28;19908;-64
2022/10/05 08:52:11;;;;;;;4.05;2.03;;;;;;;19.89;54.00;101461.22;5063364;28;20062;-64
2022/10/05 08:54:57;;;;;;;5.95;1.80;;;;;;;19.86;54.13;101460.63;5062018;28;20044;-62
2022/10/05 08:57:32;;;;;;;4.20;1.75;;;;;;;19.84;54.07;101455.47;5063169;28;20035;-65
2022/10/05 09:00:03;;;;;;;3.50;1.80;;;;;;;19.88;54.15;101458.69;5063346;28;20032;-67
2022/10/05 09:03:18;;;;;;;3.70;1.70;;;;;;;19.86;54.09;101450.88;5063580;28;20081;-67
2022/10/05 09:05:56;;;;;;;3.37;1.77;;;;;;;19.87;54.12;101462.31;5052214;28;20048;-64
2022/10/05 09:08:40;;;;;;;6.10;1.88;;;;;;;19.85;54.20;101446.56;5061237;28;20407;-64
2022/10/05 09:11:16;;;;;;;3.97;2.05;;;;;;;19.85;54.30;101451.88;5063124;28;20122;-64
2022/10/05 09:14:10;;;;;;;4.07;1.63;;;;;;;19.86;53.97;101447.41;5062973;28;20092;-63
2022/10/05 09:17:12;;;;;;;3.80;1.70;;;;;;;19.86;53.96;101445.59;5063254;28;20028;-66
2022/10/05 09:19:50;;;;;;;3.45;1.73;;;;;;;19.87;54.09;101442.00;5060636;28;20161;-70
2022/10/05 09:22:37;;;;;;;4.22;1.83;;;;;;;19.87;54.10;101435.88;5061430;28;20055;-66
2022/10/05 09:25:22;;;;;;;5.00;1.50;;;;;;;19.83;53.94;101437.91;5062237;28;20036;-67
2022/10/05 09:28:21;;;;;;;6.15;1.80;;;;;;;19.92;54.05;101447.75;5061930;28;20540;-68
2022/10/05 09:31:26;;;;;;;4.63;2.10;;;;;;;19.98;53.84;101443.78;5061827;28;20071;-68
2022/10/05 09:34:00;;;;;;;3.70;1.70;;;;;;;19.97;53.75;101433.34;5061682;28;20621;-64
2022/10/05 09:36:45;;;;;;;;;;;;;;;20.03;53.85;101444.25;5062474;28;20032;-66
2022/10/05 09:39:33;;;;;;;4.82;1.40;;;;;;;20.10;53.45;101441.97;5060920;28;19954;-68
2022/10/05 09:42:39;;;;;;;5.00;1.80;;;;;;;20.10;53.97;101440.16;5061452;28;20032;-65
2022/10/05 09:45:39;;;;;;;3.80;1.50;;;;;;;20.09;53.45;101443.78;5061157;28;20032;-63
2022/10/05 09:48:26;;;;;;;3.67;1.70;;;;;;;20.10;53.79;101441.97;5062359;28;20029;-65
2022/10/05 09:51:42;;;;;;;3.60;1.52;;;;;;;20.12;53.82;101440.03;5059592;28;20060;-66
2022/10/05 09:54:45;;;;;;;7.28;1.70;;;;;;;20.13;53.73;101425.84;5055131;28;20067;-65
2022/10/05 09:57:44;;;;;;;4.20;1.70;;;;;;;20.13;53.89;101419.72;5061502;28;20027;-63
2022/10/05 10:00:16;;;;;;;4.57;1.88;;;;;;;20.11;53.78;101415.38;5061625;28;20115;-65
2022/10/05 10:02:56;;;;;;;3.97;1.50;;;;;;;20.12;53.94;101416.22;5061118;28;20137;-66
2022/10/05 10:05:33;;;;;;;3.65;1.90;;;;;;;20.13;53.77;101420.53;5060003;28;21086;-67
2022/10/05 10:08:24;;;;;;;4.00;1.80;;;;;;;20.14;53.56;101408.16;5061241;28;20036;-67
2022/10/05 10:11:27;;;;;;;3.55;1.63;;;;;;;20.14;53.59;101409.00;5060938;28;20067;-65
2022/10/05 10:14:22;;;;;;;3.28;1.67;;;;;;;20.09;53.55;101401.44;5025486;28;20040;-66
2022/10/05 10:17:03;;;;;;;;;;;;;;;20.17;53.68;101411.41;5059774;28;20044;-67
2022/10/05 10:20:05;;;;;;;4.80;1.77;;;;;;;20.22;53.57;101393.34;5060729;28;19915;-67
2022/10/05 10:22:39;;;;;;;5.15;1.75;;;;;;;20.24;53.43;101393.22;5060844;28;20029;-65
2022/10/05 10:25:33;;;;;;;3.70;1.50;;;;;;;20.21;53.01;101382.88;5060423;28;20094;-66
2022/10/05 10:28:20;;;;;;;3.78;1.55;;;;;;;20.32;53.47;101395.25;5061109;28;20048;-67
2022/10/05 10:31:12;;;;;;;3.50;1.60;;;;;;;20.31;53.32;101375.84;5061385;28;20055;-72
2022/10/05 10:34:11;;;;;;;4.75;1.80;;;;;;;20.39;53.24;101385.81;5060803;28;20059;-71
2022/10/05 10:37:13;;;;;;;3.63;1.70;;;;;;;20.40;53.13;101376.91;5060635;28;20463;-61
2022/10/05 10:39:47;;;;;;;2.90;1.35;;;;;;;20.40;52.93;101376.91;5061158;28;20048;-62
2022/10/05 10:42:23;;;;;;;5.28;1.50;;;;;;;20.33;52.94;101367.78;5060770;28;20028;-61
2022/10/05 10:44:57;;;;;;;4.40;1.50;;;;;;;20.35;53.11;101374.66;5061422;28;20028;-62
2022/10/05 10:47:37;;;;;;;;;;;;;;;20.32;53.32;101371.41;5061692;28;20480;-63
2022/10/05 10:50:25;;;;;;;3.30;1.50;;;;;;;20.33;53.14;101371.28;5061134;28;20343;-62
2022/10/05 10:53:21;;;;;;;3.95;1.40;;;;;;;20.18;53.10;101338.97;5061232;28;20036;-63
2022/10/05 10:56:16;;;;;;;3.95;1.40;;;;;;;20.27;53.08;101362.03;5061435;28;20024;-62
2022/10/05 10:59:03;;;;;;;2.47;1.33;;;;;;;20.22;53.36;101347.50;5061092;28;20076;-63
2022/10/05 11:01:35;;;;;;;3.25;1.50;;;;;;;20.25;53.27;101345.44;5061162;28;20056;-61
2022/10/05 11:04:21;;;;;;;4.15;1.50;;;;;;;20.19;53.35;101337.19;5061259;28;20116;-61
2022/10/05 11:06:57;;;;;;;3.35;1.40;;;;;;;20.25;53.34;101345.44;5060880;28;20384;-63
2022/10/05 11:09:47;;;;;;;3.92;1.77;;;;;;;20.25;53.31;101348.09;5061403;28;20128;-61
2022/10/05 11:12:30;;;;;;;4.95;1.50;;;;;;;20.24;53.54;101353.53;5060717;28;20380;-62
2022/10/05 11:15:30;;;;;;;2.90;1.50;;;;;;;20.24;53.21;101342.94;5060916;28;20055;-62
2022/10/05 11:18:15;;;;;;;3.95;1.50;;;;;;;20.24;53.36;101348.22;5061087;28;20767;-61
2022/10/05 11:20:59;;;;;;;3.38;1.48;;;;;;;20.22;53.30;101335.13;5060851;28;20029;-62
2022/10/05 11:24:04;;;;;;;6.53;1.50;;;;;;;20.21;53.36;101335.25;5060840;28;20028;-61
2022/10/05 11:27:20;;;;;;;3.10;1.30;;;;;;;20.20;53.57;101337.06;5054065;28;20048;-61
2022/10/05 11:30:13;;;;;;;4.80;1.70;;;;;;;20.20;53.49;101333.56;5043006;28;20040;-62
2022/10/05 11:33:10;;;;;;;2.42;1.23;;;;;;;20.19;53.65;101326.59;5065098;28;20064;-61
2022/10/05 11:36:14;;;;;;;3.33;1.40;;;;;;;20.19;53.58;101326.59;5064500;28;20456;-61
2022/10/05 11:39:05;;;;;;;2.55;1.40;;;;;;;20.13;53.40;101306.75;5064074;28;20028;-62
2022/10/05 11:41:40;;;;;;;3.92;1.30;;;;;;;20.17;53.44;101307.34;5064901;28;20040;-62
2022/10/05 11:44:38;;;;;;;3.35;1.52;;;;;;;20.16;53.39;101298.56;5064603;28;20631;-62
2022/10/05 11:47:16;;;;;;;6.75;1.45;;;;;;;20.17;53.72;101305.56;5064514;28;20546;-61
2022/10/05 11:49:45;;;;;;;2.97;1.40;;;;;;;20.09;53.56;101284.16;5064709;28;20534;-63
2022/10/05 11:52:30;;;;;;;3.67;1.50;;;;;;;20.15;53.67;101306.63;5064751;28;20994;-63
2022/10/05 11:55:19;;;;;;;2.75;1.30;;;;;;;20.14;53.58;101289.94;5064159;28;20037;-61
2022/10/05 11:57:48;;;;;;;2.83;1.50;;;;;;;20.15;53.59;101286.31;5064540;28;20040;-63
2022/10/05 12:00:44;;;;;;;2.88;1.30;;;;;;;20.13;53.66;101285.59;5064262;28;20036;-63
2022/10/05 12:03:43;;;;;;;2.85;1.40;;;;;;;20.14;53.75;101274.06;5059679;28;20472;-61
2022/10/05 12:06:38;;;;;;;3.95;1.50;;;;;;;20.09;53.78;101260.34;5064308;28;20484;-62
2022/10/05 12:09:25;;;;;;;3.03;1.50;;;;;;;20.14;53.70;101263.47;5064139;28;20036;-63
2022/10/05 12:12:09;;;;;;;3.88;1.45;;;;;;;20.13;53.60;101256.50;5064120;28;20116;-62
2022/10/05 12:14:47;;;;;;;3.10;1.50;;;;;;;20.14;53.59;101252.88;5064050;28;20055;-63
2022/10/05 12:17:22;;;;;;;3.72;1.60;;;;;;;20.14;53.39;101242.31;5063909;28;20082;-62
2022/10/05 12:19:55;;;;;;;3.25;1.40;;;;;;;20.13;53.67;101248.56;5063842;28;20074;-62
2022/10/05 12:22:29;;;;;;;3.03;1.30;;;;;;;20.10;53.38;101239.06;5063696;28;20537;-63
2022/10/05 12:25:20;;;;;;;3.55;1.60;;;;;;;20.16;53.51;101250.94;5063959;28;20036;-62
2022/10/05 12:27:50;;;;;;;3.08;1.25;;;;;;;20.16;53.71;101253.59;5064017;28;20036;-62
2022/10/05 12:30:17;;;;;;;2.50;1.23;;;;;;;20.18;53.59;101243.72;5063744;28;20029;-62
2022/10/05 12:33:18;;;;;;;2.70;1.33;;;;;;;20.13;53.47;101237.97;5063578;28;20036;-63
2022/10/05 12:35:54;;;;;;;2.97;1.35;;;;;;;20.12;53.68;101233.63;5063902;28;20037;-60
2022/10/05 12:38:44;;;;;;;2.47;1.27;;;;;;;20.19;53.66;101245.41;5063614;28;20032;-60
2022/10/05 12:41:32;;;;;;;2.75;1.27;;;;;;;20.19;53.79;101244.56;5063443;28;20033;-60